Time;durP1;ratioP1;P1;durP2;ratioP2;P2;SDS_P1;SDS_P2;PMS_P1;PMS_P2;Temp;Humidity;BMP_temperature;BMP_pressure;BME280_temperature;BME280_humidity;BME280_pressure;Samples;Min_cycle;Max_cycle;Signal;HPM_P1;HPM_P2
2024/01/30 00:00:21;;;;;;;47.88;30.15;;;;;;;;;;4986249;28;20030;-77
2024/01/30 00:02:47;;;;;;;43.95;29.67;;;;;;;;;;4989608;28;20034;-76
2024/01/30 00:05:13;;;;;;;51.55;30.30;;;;;;;;;;4989989;28;20034;-75
2024/01/30 00:07:39;;;;;;;51.47;29.73;;;;;;;;;;4989209;28;20022;-75
2024/01/30 00:10:06;;;;;;;50.10;31.88;;;;;;;;;;4987732;28;20480;-75
2024/01/30 00:12:33;;;;;;;54.20;31.20;;;;;;;;;;4988901;28;20038;-76
2024/01/30 00:14:59;;;;;;;48.35;29.92;;;;;;;;;;4989313;28;20108;-76
2024/01/30 00:17:26;;;;;;;46.72;30.23;;;;;;;;;;4972050;28;20073;-76
2024/01/30 00:19:52;;;;;;;48.78;30.63;;;;;;;;;;4989498;28;20042;-76
2024/01/30 00:22:18;;;;;;;46.28;30.30;;;;;;;;;;4994765;28;20042;-77
2024/01/30 00:24:44;;;;;;;46.17;29.33;;;;;;;;;;4989529;28;20038;-76
2024/01/30 00:27:11;;;;;;;47.90;29.83;;;;;;;;;;4990333;28;20034;-76
2024/01/30 00:29:37;;;;;;;51.38;30.80;;;;;;;;;;4988609;28;20065;-76
2024/01/30 00:32:03;;;;;;;44.00;28.80;;;;;;;;;;4988275;28;20031;-78
2024/01/30 00:34:29;;;;;;;42.40;27.92;;;;;;;;;;4988387;28;20031;-76
2024/01/30 00:36:55;;;;;;;50.65;31.10;;;;;;;;;;4988783;28;20132;-76
2024/01/30 00:39:21;;;;;;;51.58;29.48;;;;;;;;;;4988674;28;20089;-76
2024/01/30 00:41:47;;;;;;;46.13;29.55;;;;;;;;;;4989336;28;20129;-76
2024/01/30 00:44:14;;;;;;;43.28;28.70;;;;;;;;;;4986806;28;20114;-76
2024/01/30 00:46:40;;;;;;;47.35;29.92;;;;;;;;;;4987245;28;20302;-76
2024/01/30 00:49:06;;;;;;;42.45;28.38;;;;;;;;;;4971014;28;20129;-76
2024/01/30 00:51:32;;;;;;;46.22;27.95;;;;;;;;;;4989087;28;20030;-77
2024/01/30 00:53:58;;;;;;;44.10;28.45;;;;;;;;;;4987500;28;20037;-75
2024/01/30 00:56:24;;;;;;;50.38;27.90;;;;;;;;;;4982668;28;20046;-75
2024/01/30 00:58:50;;;;;;;54.33;28.63;;;;;;;;;;4955812;28;20022;-75
2024/01/30 01:01:16;;;;;;;46.88;29.88;;;;;;;;;;4987487;28;20034;-76
2024/01/30 01:03:43;;;;;;;44.47;28.05;;;;;;;;;;4988799;28;20203;-76
2024/01/30 01:06:10;;;;;;;46.38;28.70;;;;;;;;;;4989089;28;20030;-77
2024/01/30 01:08:36;;;;;;;41.72;27.88;;;;;;;;;;4988956;28;20042;-76
2024/01/30 01:11:03;;;;;;;49.90;28.70;;;;;;;;;;4987345;28;20022;-75
2024/01/30 01:13:29;;;;;;;43.03;26.52;;;;;;;;;;4986013;28;20045;-76
2024/01/30 01:15:55;;;;;;;40.67;26.85;;;;;;;;;;4986681;28;20045;-76
2024/01/30 01:18:21;;;;;;;45.70;26.35;;;;;;;;;;4970174;28;20026;-77
2024/01/30 01:20:48;;;;;;;40.45;26.15;;;;;;;;;;4987650;28;20492;-76
2024/01/30 01:23:14;;;;;;;40.22;25.02;;;;;;;;;;4988305;28;20038;-76
2024/01/30 01:25:40;;;;;;;38.30;25.85;;;;;;;;;;4988703;28;20039;-75
2024/01/30 01:28:06;;;;;;;42.50;24.67;;;;;;;;;;4988742;28;20034;-76
2024/01/30 01:30:32;;;;;;;40.13;24.45;;;;;;;;;;4984532;28;20361;-76
2024/01/30 01:33:02;;;;;;;41.30;25.42;;;;;;;;;;4987683;28;20027;-76
2024/01/30 01:35:28;;;;;;;39.72;24.08;;;;;;;;;;4989323;28;20427;-76
2024/01/30 01:37:54;;;;;;;37.00;23.98;;;;;;;;;;4987711;28;20030;-75
2024/01/30 01:40:22;;;;;;;39.58;24.80;;;;;;;;;;4988904;28;20042;-77
2024/01/30 01:42:54;;;;;;;36.13;23.15;;;;;;;;;;4987362;28;20042;-76
2024/01/30 01:45:21;;;;;;;39.67;24.83;;;;;;;;;;4984279;28;20115;-76
2024/01/30 01:47:56;;;;;;;35.03;23.50;;;;;;;;;;4988898;28;20073;-77
2024/01/30 01:50:22;;;;;;;37.08;24.48;;;;;;;;;;4989068;28;20077;-77
2024/01/30 01:52:49;;;;;;;37.95;24.27;;;;;;;;;;4988345;28;20034;-77
2024/01/30 01:55:21;;;;;;;38.15;23.77;;;;;;;;;;4991472;28;20046;-76
2024/01/30 01:57:48;;;;;;;37.72;24.50;;;;;;;;;;4987235;28;20100;-75
2024/01/30 02:00:15;;;;;;;36.33;23.95;;;;;;;;;;4988969;28;20034;-76
2024/01/30 02:02:41;;;;;;;37.35;22.88;;;;;;;;;;4988398;28;20038;-75
2024/01/30 02:05:09;;;;;;;43.40;24.30;;;;;;;;;;4980420;28;20027;-76
2024/01/30 02:07:35;;;;;;;34.75;24.23;;;;;;;;;;4988596;28;20022;-76
2024/01/30 02:10:01;;;;;;;38.10;23.83;;;;;;;;;;4976012;28;20039;-77
2024/01/30 02:12:27;;;;;;;40.90;24.83;;;;;;;;;;4986564;28;20029;-77
2024/01/30 02:14:55;;;;;;;39.60;25.17;;;;;;;;;;4985397;28;20097;-77
2024/01/30 02:17:23;;;;;;;36.72;24.48;;;;;;;;;;4970652;28;20587;-76
2024/01/30 02:19:49;;;;;;;40.90;24.60;;;;;;;;;;4990827;28;20039;-77
2024/01/30 02:22:15;;;;;;;41.58;26.17;;;;;;;;;;4988225;28;20465;-76
2024/01/30 02:24:41;;;;;;;37.75;24.65;;;;;;;;;;4986116;28;20030;-77
2024/01/30 02:27:07;;;;;;;39.97;25.30;;;;;;;;;;4981349;28;20042;-74
2024/01/30 02:29:33;;;;;;;38.45;25.02;;;;;;;;;;4987111;28;20046;-76
2024/01/30 02:31:59;;;;;;;40.20;24.10;;;;;;;;;;4980911;28;20026;-76
2024/01/30 02:34:26;;;;;;;37.20;24.50;;;;;;;;;;4987612;28;20388;-76
2024/01/30 02:36:52;;;;;;;38.22;25.30;;;;;;;;;;4990063;28;20027;-76
2024/01/30 02:39:18;;;;;;;38.17;25.38;;;;;;;;;;4990279;28;20101;-77
2024/01/30 02:41:44;;;;;;;38.28;24.92;;;;;;;;;;4990813;28;20030;-77
2024/01/30 02:44:11;;;;;;;37.58;24.90;;;;;;;;;;4989902;28;20070;-76
2024/01/30 02:46:37;;;;;;;39.30;24.55;;;;;;;;;;4988015;28;20034;-76
2024/01/30 02:49:03;;;;;;;37.92;25.05;;;;;;;;;;4991893;28;20030;-76
2024/01/30 02:51:29;;;;;;;33.83;24.48;;;;;;;;;;4991592;28;20062;-76
2024/01/30 02:53:56;;;;;;;42.95;25.90;;;;;;;;;;4991142;28;20038;-75
2024/01/30 02:56:22;;;;;;;38.97;25.25;;;;;;;;;;4990571;28;20042;-75
2024/01/30 02:58:48;;;;;;;39.72;24.92;;;;;;;;;;4991366;28;20315;-75
2024/01/30 03:01:14;;;;;;;42.83;25.45;;;;;;;;;;4990115;28;20030;-76
2024/01/30 03:03:42;;;;;;;37.20;24.17;;;;;;;;;;4989837;28;20502;-77
2024/01/30 03:06:08;;;;;;;36.83;25.83;;;;;;;;;;4991756;28;20094;-76
2024/01/30 03:08:35;;;;;;;40.13;25.70;;;;;;;;;;4988891;28;20034;-77
2024/01/30 03:11:01;;;;;;;36.80;26.15;;;;;;;;;;4990182;28;20140;-77
2024/01/30 03:13:27;;;;;;;39.72;25.15;;;;;;;;;;4990722;28;20033;-77
2024/01/30 03:15:53;;;;;;;38.10;25.80;;;;;;;;;;4988939;28;20123;-76
2024/01/30 03:18:20;;;;;;;41.45;26.95;;;;;;;;;;4964305;28;20034;-76
2024/01/30 03:20:46;;;;;;;47.85;27.65;;;;;;;;;;4990945;28;20065;-77
2024/01/30 03:23:12;;;;;;;42.70;27.63;;;;;;;;;;4990721;28;20041;-76
2024/01/30 03:25:38;;;;;;;44.28;27.60;;;;;;;;;;4990903;28;20033;-77
2024/01/30 03:28:04;;;;;;;43.08;26.08;;;;;;;;;;4989185;28;20084;-77
2024/01/30 03:30:32;;;;;;;42.88;27.65;;;;;;;;;;4990123;28;20046;-76
2024/01/30 03:32:58;;;;;;;43.97;27.00;;;;;;;;;;4989621;28;20426;-76
2024/01/30 03:35:24;;;;;;;41.88;26.73;;;;;;;;;;4991219;28;20122;-76
2024/01/30 03:37:50;;;;;;;43.60;26.83;;;;;;;;;;4992042;28;20034;-76
2024/01/30 03:40:16;;;;;;;40.33;27.85;;;;;;;;;;4990851;28;20093;-75
2024/01/30 03:42:42;;;;;;;41.25;26.48;;;;;;;;;;4988408;28;20038;-77
2024/01/30 03:45:09;;;;;;;38.20;26.05;;;;;;;;;;4972670;28;20100;-76
2024/01/30 03:47:35;;;;;;;38.90;26.33;;;;;;;;;;4988309;28;20027;-75
2024/01/30 03:50:07;;;;;;;40.92;25.58;;;;;;;;;;4990723;28;20044;-76
2024/01/30 03:52:33;;;;;;;42.15;25.63;;;;;;;;;;4987488;28;20034;-76
2024/01/30 03:54:59;;;;;;;37.50;25.52;;;;;;;;;;4990211;28;20046;-75
2024/01/30 03:57:26;;;;;;;44.58;26.20;;;;;;;;;;4988130;28;20030;-76
2024/01/30 03:59:55;;;;;;;36.08;24.00;;;;;;;;;;4988052;28;20488;-75
2024/01/30 04:02:21;;;;;;;40.20;24.42;;;;;;;;;;4988958;28;20057;-76
2024/01/30 04:04:47;;;;;;;38.38;24.20;;;;;;;;;;4985559;28;20462;-76
2024/01/30 04:07:13;;;;;;;34.95;23.63;;;;;;;;;;4987273;28;20504;-76
2024/01/30 04:09:39;;;;;;;36.80;23.98;;;;;;;;;;4967548;28;20401;-76
2024/01/30 04:12:07;;;;;;;36.63;24.27;;;;;;;;;;4990403;28;20113;-75
2024/01/30 04:14:33;;;;;;;38.33;23.30;;;;;;;;;;4983507;28;20034;-76
2024/01/30 04:16:59;;;;;;;35.35;23.80;;;;;;;;;;4990569;28;20085;-75
2024/01/30 04:19:25;;;;;;;39.42;23.58;;;;;;;;;;4989068;28;20429;-76
2024/01/30 04:21:52;;;;;;;35.22;23.58;;;;;;;;;;4983546;28;20021;-76
2024/01/30 04:24:20;;;;;;;33.38;22.77;;;;;;;;;;4988183;28;20052;-76
2024/01/30 04:26:46;;;;;;;33.25;22.77;;;;;;;;;;4990117;28;20133;-76
2024/01/30 04:29:13;;;;;;;38.97;23.05;;;;;;;;;;4971940;28;20283;-76
2024/01/30 04:31:39;;;;;;;37.60;23.33;;;;;;;;;;4988184;28;20121;-76
2024/01/30 04:34:05;;;;;;;32.00;22.23;;;;;;;;;;4969935;28;20046;-76
2024/01/30 04:36:31;;;;;;;33.97;22.52;;;;;;;;;;4987945;28;20080;-76
2024/01/30 04:38:57;;;;;;;35.83;21.73;;;;;;;;;;4988319;28;20077;-76
2024/01/30 04:41:24;;;;;;;36.03;22.15;;;;;;;;;;4987358;28;20578;-76
2024/01/30 04:43:50;;;;;;;35.67;22.45;;;;;;;;;;4985282;28;20042;-76
2024/01/30 04:46:16;;;;;;;36.25;22.52;;;;;;;;;;4985067;28;20046;-74
2024/01/30 04:48:42;;;;;;;41.53;22.63;;;;;;;;;;4989710;28;20035;-75
2024/01/30 04:51:08;;;;;;;36.72;23.42;;;;;;;;;;4970810;28;20022;-76
2024/01/30 04:53:34;;;;;;;33.92;22.90;;;;;;;;;;4988012;28;20038;-76
2024/01/30 04:56:01;;;;;;;36.22;21.90;;;;;;;;;;4985970;28;20113;-76
2024/01/30 04:58:27;;;;;;;35.78;23.55;;;;;;;;;;4987716;28;20038;-76
2024/01/30 05:00:53;;;;;;;34.38;21.85;;;;;;;;;;4988750;28;20054;-75
2024/01/30 05:03:20;;;;;;;35.42;21.80;;;;;;;;;;4970650;28;20114;-76
2024/01/30 05:05:46;;;;;;;32.70;21.80;;;;;;;;;;4969259;28;20042;-76
2024/01/30 05:08:12;;;;;;;37.70;23.08;;;;;;;;;;4988150;28;20113;-75
2024/01/30 05:10:38;;;;;;;39.92;22.10;;;;;;;;;;4967022;28;20469;-75
2024/01/30 05:13:05;;;;;;;35.78;22.48;;;;;;;;;;4988152;28;20027;-75
2024/01/30 05:15:31;;;;;;;33.45;22.08;;;;;;;;;;4986243;28;20117;-76
2024/01/30 05:17:57;;;;;;;36.35;21.55;;;;;;;;;;4989481;28;20041;-76
2024/01/30 05:20:23;;;;;;;32.65;20.05;;;;;;;;;;4989641;28;20118;-76
2024/01/30 05:22:50;;;;;;;38.05;22.15;;;;;;;;;;4988266;28;20037;-76
2024/01/30 05:25:16;;;;;;;35.03;20.42;;;;;;;;;;4971579;28;20084;-76
2024/01/30 05:27:42;;;;;;;34.55;21.08;;;;;;;;;;4989151;28;20037;-76
2024/01/30 05:30:09;;;;;;;29.42;20.40;;;;;;;;;;4986825;28;20353;-77
2024/01/30 05:32:35;;;;;;;30.23;20.00;;;;;;;;;;4989040;28;20050;-76
2024/01/30 05:35:01;;;;;;;31.05;19.42;;;;;;;;;;4988531;28;20037;-75
2024/01/30 05:37:27;;;;;;;31.95;19.35;;;;;;;;;;4987269;28;20101;-76
2024/01/30 05:39:53;;;;;;;29.10;18.85;;;;;;;;;;4995864;28;20034;-77
2024/01/30 05:42:19;;;;;;;26.55;18.25;;;;;;;;;;4988294;28;20050;-76
2024/01/30 05:44:45;;;;;;;29.77;18.35;;;;;;;;;;4984974;28;20076;-76
2024/01/30 05:47:11;;;;;;;27.20;18.48;;;;;;;;;;4988564;28;20498;-76
2024/01/30 05:49:38;;;;;;;28.55;18.63;;;;;;;;;;4988509;28;20396;-76
2024/01/30 05:52:05;;;;;;;29.40;18.52;;;;;;;;;;4989111;28;20030;-76
2024/01/30 05:54:31;;;;;;;29.95;18.98;;;;;;;;;;4987925;28;20039;-77
2024/01/30 05:56:57;;;;;;;26.90;17.00;;;;;;;;;;4986985;28;20079;-76
2024/01/30 05:59:23;;;;;;;25.70;16.45;;;;;;;;;;4986428;28;20038;-76
2024/01/30 06:01:49;;;;;;;29.08;17.73;;;;;;;;;;4987034;28;20037;-75
2024/01/30 06:04:15;;;;;;;28.25;17.92;;;;;;;;;;4986774;28;20125;-75
2024/01/30 06:06:42;;;;;;;25.88;17.95;;;;;;;;;;4988185;28;20031;-76
2024/01/30 06:09:09;;;;;;;29.70;17.27;;;;;;;;;;4988337;28;20026;-75
2024/01/30 06:11:35;;;;;;;27.02;16.75;;;;;;;;;;4989432;28;20092;-76
2024/01/30 06:14:01;;;;;;;23.55;16.35;;;;;;;;;;4987471;28;20037;-75
2024/01/30 06:16:29;;;;;;;26.55;16.38;;;;;;;;;;4988836;28;20489;-76
2024/01/30 06:18:55;;;;;;;26.77;16.40;;;;;;;;;;4990292;28;20081;-76
2024/01/30 06:21:22;;;;;;;24.98;16.80;;;;;;;;;;4990578;28;20050;-76
2024/01/30 06:23:48;;;;;;;31.90;17.13;;;;;;;;;;4989859;28;20480;-75
2024/01/30 06:26:14;;;;;;;27.10;16.52;;;;;;;;;;4990969;28;20053;-77
2024/01/30 06:28:40;;;;;;;25.42;16.45;;;;;;;;;;4988679;28;20086;-77
2024/01/30 06:31:07;;;;;;;29.73;16.63;;;;;;;;;;4970137;28;20042;-77
2024/01/30 06:33:33;;;;;;;27.02;17.10;;;;;;;;;;4988617;28;20038;-75
2024/01/30 06:35:59;;;;;;;26.38;15.60;;;;;;;;;;4977477;28;20380;-77
2024/01/30 06:38:25;;;;;;;23.92;15.10;;;;;;;;;;4989393;28;20054;-78
2024/01/30 06:40:51;;;;;;;22.95;15.27;;;;;;;;;;4989474;28;20050;-77
2024/01/30 06:43:17;;;;;;;26.67;15.68;;;;;;;;;;4990248;28;20038;-77
2024/01/30 06:45:44;;;;;;;24.85;14.38;;;;;;;;;;4990965;28;20026;-76
2024/01/30 06:48:10;;;;;;;23.27;14.07;;;;;;;;;;4991040;28;20045;-75
2024/01/30 06:50:36;;;;;;;32.83;14.07;;;;;;;;;;4991753;28;20030;-76
2024/01/30 06:53:02;;;;;;;23.27;14.55;;;;;;;;;;4993364;28;20039;-76
2024/01/30 06:55:28;;;;;;;22.08;13.65;;;;;;;;;;4991944;28;20041;-76
2024/01/30 06:57:54;;;;;;;26.30;14.32;;;;;;;;;;4991325;28;20038;-76
2024/01/30 07:00:22;;;;;;;24.70;14.90;;;;;;;;;;4990352;28;20034;-76
2024/01/30 07:02:48;;;;;;;27.40;15.25;;;;;;;;;;4990446;28;20034;-77
2024/01/30 07:05:15;;;;;;;24.50;14.32;;;;;;;;;;4991043;28;20030;-76
2024/01/30 07:07:41;;;;;;;28.50;14.80;;;;;;;;;;4991311;28;20073;-76
2024/01/30 07:10:07;;;;;;;23.23;14.70;;;;;;;;;;4991004;28;20086;-76
2024/01/30 07:12:34;;;;;;;21.92;14.57;;;;;;;;;;4988428;28;20050;-77
2024/01/30 07:15:00;;;;;;;24.98;14.43;;;;;;;;;;5002880;28;20022;-76
2024/01/30 07:17:27;;;;;;;26.73;14.40;;;;;;;;;;4977159;28;20100;-75
2024/01/30 07:19:53;;;;;;;30.67;14.65;;;;;;;;;;4993746;28;20034;-76
2024/01/30 07:22:19;;;;;;;26.30;14.98;;;;;;;;;;4974080;28;20114;-76
2024/01/30 07:24:47;;;;;;;25.02;14.23;;;;;;;;;;4991614;28;20092;-75
2024/01/30 07:27:14;;;;;;;29.20;14.43;;;;;;;;;;4991518;28;20030;-77
2024/01/30 07:29:40;;;;;;;22.23;14.05;;;;;;;;;;4990964;28;20041;-77
2024/01/30 07:32:06;;;;;;;27.10;13.93;;;;;;;;;;4990480;28;20057;-77
2024/01/30 07:34:33;;;;;;;29.60;14.48;;;;;;;;;;4988992;28;20026;-75
2024/01/30 07:36:59;;;;;;;24.65;14.88;;;;;;;;;;4989510;28;20112;-76
2024/01/30 07:39:25;;;;;;;23.38;14.48;;;;;;;;;;4988746;28;20038;-78
2024/01/30 07:41:55;;;;;;;23.52;14.13;;;;;;;;;;4990143;28;20062;-77
2024/01/30 07:44:23;;;;;;;31.40;14.50;;;;;;;;;;5008006;28;20050;-77
2024/01/30 07:46:49;;;;;;;21.52;13.27;;;;;;;;;;4992168;28;20022;-77
2024/01/30 07:49:15;;;;;;;28.25;14.15;;;;;;;;;;4990629;28;20026;-77
2024/01/30 07:51:43;;;;;;;29.85;13.43;;;;;;;;;;4989512;28;20023;-77
2024/01/30 07:54:12;;;;;;;20.25;13.07;;;;;;;;;;4990119;28;20030;-76
2024/01/30 07:56:41;;;;;;;26.52;14.57;;;;;;;;;;4990599;28;20026;-77
2024/01/30 07:59:11;;;;;;;27.80;13.48;;;;;;;;;;4990363;28;20053;-77
2024/01/30 08:01:37;;;;;;;24.20;14.43;;;;;;;;;;4993737;28;20026;-76
2024/01/30 08:04:04;;;;;;;24.35;13.50;;;;;;;;;;4990565;28;20038;-78
2024/01/30 08:06:30;;;;;;;30.52;14.50;;;;;;;;;;4989888;28;20038;-77
2024/01/30 08:08:59;;;;;;;27.38;15.70;;;;;;;;;;4991358;28;20042;-77
2024/01/30 08:11:26;;;;;;;23.73;13.38;;;;;;;;;;4989601;28;20143;-77
2024/01/30 08:13:55;;;;;;;29.60;13.70;;;;;;;;;;4991069;28;20030;-77
2024/01/30 08:16:24;;;;;;;22.88;13.27;;;;;;;;;;4989728;28;20050;-77
2024/01/30 08:18:53;;;;;;;21.80;13.13;;;;;;;;;;4990625;28;20038;-78
2024/01/30 08:21:19;;;;;;;23.58;12.68;;;;;;;;;;4989368;28;20041;-77
2024/01/30 08:23:45;;;;;;;26.92;13.02;;;;;;;;;;4990306;28;20034;-77
2024/01/30 08:26:11;;;;;;;24.10;13.13;;;;;;;;;;4990663;28;20150;-77
2024/01/30 08:28:37;;;;;;;27.35;14.10;;;;;;;;;;4990402;28;20026;-77
2024/01/30 08:31:04;;;;;;;24.45;13.20;;;;;;;;;;4991253;28;20519;-76
2024/01/30 08:33:30;;;;;;;25.08;13.90;;;;;;;;;;4988365;28;20038;-77
2024/01/30 08:35:57;;;;;;;23.48;13.50;;;;;;;;;;4988057;28;20039;-79
2024/01/30 08:38:29;;;;;;;26.70;13.40;;;;;;;;;;4987787;28;20040;-77
2024/01/30 08:40:55;;;;;;;22.85;12.90;;;;;;;;;;4987082;28;20121;-77
2024/01/30 08:43:22;;;;;;;22.88;12.75;;;;;;;;;;4987855;28;20431;-77
2024/01/30 08:45:48;;;;;;;29.20;15.27;;;;;;;;;;4989435;28;20026;-75
2024/01/30 08:48:15;;;;;;;22.85;13.63;;;;;;;;;;4987626;28;20026;-76
2024/01/30 08:50:41;;;;;;;22.83;13.05;;;;;;;;;;4986364;28;20038;-76
2024/01/30 08:53:07;;;;;;;27.80;13.25;;;;;;;;;;4989707;28;20053;-77
2024/01/30 08:55:33;;;;;;;22.80;12.98;;;;;;;;;;4988897;28;20567;-76
2024/01/30 08:57:59;;;;;;;25.13;12.93;;;;;;;;;;4990911;28;20400;-77
2024/01/30 09:00:25;;;;;;;23.15;13.25;;;;;;;;;;4990714;28;20038;-76
2024/01/30 09:02:55;;;;;;;22.00;12.82;;;;;;;;;;4990564;28;20030;-77
2024/01/30 09:05:21;;;;;;;25.52;13.35;;;;;;;;;;4988655;28;20022;-75
2024/01/30 09:07:47;;;;;;;27.02;13.13;;;;;;;;;;4990297;28;20041;-76
2024/01/30 09:10:13;;;;;;;27.27;13.13;;;;;;;;;;4990272;28;20057;-76
2024/01/30 09:12:39;;;;;;;28.67;13.68;;;;;;;;;;4990424;28;20113;-76
2024/01/30 09:15:05;;;;;;;24.42;13.63;;;;;;;;;;4990130;28;20566;-75
2024/01/30 09:17:33;;;;;;;25.90;12.80;;;;;;;;;;4990070;28;20049;-76
2024/01/30 09:19:59;;;;;;;24.58;12.75;;;;;;;;;;4988716;28;20042;-76
2024/01/30 09:22:26;;;;;;;22.88;13.00;;;;;;;;;;4988268;28;20049;-75
2024/01/30 09:24:52;;;;;;;27.52;13.77;;;;;;;;;;4988241;28;20038;-76
2024/01/30 09:27:18;;;;;;;25.52;13.52;;;;;;;;;;4988606;28;20037;-77
2024/01/30 09:29:45;;;;;;;22.38;14.38;;;;;;;;;;4989820;28;20031;-76
2024/01/30 09:32:11;;;;;;;29.42;13.32;;;;;;;;;;4989191;28;20040;-77
2024/01/30 09:34:39;;;;;;;21.48;12.65;;;;;;;;;;4972404;28;20114;-75
2024/01/30 09:37:05;;;;;;;22.15;13.32;;;;;;;;;;4988359;28;20464;-76
2024/01/30 09:39:31;;;;;;;23.15;13.85;;;;;;;;;;4987779;28;20022;-76
2024/01/30 09:42:03;;;;;;;28.10;14.30;;;;;;;;;;4988033;28;20057;-76
2024/01/30 09:44:30;;;;;;;28.25;12.98;;;;;;;;;;4987776;28;20070;-77
2024/01/30 09:47:03;;;;;;;21.77;12.35;;;;;;;;;;4987885;28;20554;-76
2024/01/30 09:49:30;;;;;;;29.10;13.73;;;;;;;;;;4989086;28;20547;-76
2024/01/30 09:51:56;;;;;;;28.77;13.00;;;;;;;;;;4989509;28;20034;-75
2024/01/30 09:54:22;;;;;;;20.08;13.30;;;;;;;;;;4989166;28;20049;-75
2024/01/30 09:56:49;;;;;;;25.05;12.60;;;;;;;;;;4988231;28;20030;-75
2024/01/30 09:59:15;;;;;;;26.20;13.00;;;;;;;;;;4989462;28;20077;-77
2024/01/30 10:01:41;;;;;;;22.17;12.68;;;;;;;;;;4989087;28;20112;-76
2024/01/30 10:04:09;;;;;;;29.75;13.27;;;;;;;;;;4988964;28;20035;-78
2024/01/30 10:06:36;;;;;;;23.35;13.27;;;;;;;;;;4989956;28;20025;-77
2024/01/30 10:09:02;;;;;;;29.08;12.93;;;;;;;;;;4989943;28;20385;-76
2024/01/30 10:11:28;;;;;;;25.48;12.05;;;;;;;;;;4972877;28;20026;-77
2024/01/30 10:13:54;;;;;;;21.98;12.07;;;;;;;;;;4972364;28;20038;-76
2024/01/30 10:16:21;;;;;;;25.17;12.82;;;;;;;;;;4989826;28;20121;-77
2024/01/30 10:18:47;;;;;;;22.13;11.50;;;;;;;;;;4990029;28;20057;-77
2024/01/30 10:21:13;;;;;;;25.05;12.02;;;;;;;;;;4988505;28;20076;-77
2024/01/30 10:23:39;;;;;;;21.10;11.88;;;;;;;;;;4988203;28;20034;-77
2024/01/30 10:26:08;;;;;;;22.63;12.63;;;;;;;;;;4988027;28;20043;-77
2024/01/30 10:28:34;;;;;;;21.33;11.10;;;;;;;;;;4989624;28;20466;-77
2024/01/30 10:31:00;;;;;;;16.73;10.65;;;;;;;;;;4987942;28;20093;-76
2024/01/30 10:33:27;;;;;;;21.27;10.05;;;;;;;;;;4987273;28;20038;-76
2024/01/30 10:35:56;;;;;;;21.02;9.82;;;;;;;;;;4989406;28;20022;-77
2024/01/30 10:38:24;;;;;;;17.50;10.20;;;;;;;;;;4987410;28;20221;-77
2024/01/30 10:40:55;;;;;;;14.65;9.30;;;;;;;;;;4988405;28;20066;-78
2024/01/30 10:43:22;;;;;;;18.58;9.25;;;;;;;;;;4987273;28;20038;-78
2024/01/30 10:45:50;;;;;;;17.52;7.57;;;;;;;;;;4988982;28;20037;-77
2024/01/30 10:48:18;;;;;;;16.42;7.15;;;;;;;;;;4987690;28;20018;-76
2024/01/30 10:50:46;;;;;;;12.30;6.63;;;;;;;;;;4988782;28;20089;-76
2024/01/30 10:53:13;;;;;;;15.77;6.55;;;;;;;;;;4987821;28;20488;-76
2024/01/30 10:55:39;;;;;;;12.10;5.80;;;;;;;;;;4989471;28;20037;-77
2024/01/30 10:58:06;;;;;;;15.60;5.95;;;;;;;;;;4990497;28;20092;-76
2024/01/30 11:00:34;;;;;;;21.67;6.90;;;;;;;;;;4991484;28;20034;-77
2024/01/30 11:03:00;;;;;;;20.70;7.65;;;;;;;;;;4991999;28;20049;-76
2024/01/30 11:05:26;;;;;;;17.83;7.63;;;;;;;;;;4992018;28;20019;-77
2024/01/30 11:07:52;;;;;;;18.88;8.02;;;;;;;;;;4990720;28;20496;-76
2024/01/30 11:10:18;;;;;;;22.15;6.90;;;;;;;;;;4990417;28;20109;-78
2024/01/30 11:12:47;;;;;;;15.77;5.78;;;;;;;;;;4990946;28;20095;-77
2024/01/30 11:15:14;;;;;;;14.88;5.60;;;;;;;;;;4992536;28;20118;-77
2024/01/30 11:17:42;;;;;;;16.10;4.50;;;;;;;;;;4989759;28;20041;-76
2024/01/30 11:20:11;;;;;;;9.98;4.63;;;;;;;;;;4992301;28;20034;-76
2024/01/30 11:22:38;;;;;;;12.68;4.50;;;;;;;;;;4971199;28;20129;-76
2024/01/30 11:25:04;;;;;;;16.40;4.82;;;;;;;;;;4991282;28;20041;-76
2024/01/30 11:27:31;;;;;;;12.68;4.78;;;;;;;;;;4991532;28;20403;-77
2024/01/30 11:30:04;;;;;;;11.85;3.95;;;;;;;;;;4990273;28;20033;-76
2024/01/30 11:32:31;;;;;;;11.77;3.67;;;;;;;;;;4987861;28;20034;-77
2024/01/30 11:34:58;;;;;;;10.93;4.97;;;;;;;;;;4990089;28;20419;-78
2024/01/30 11:37:28;;;;;;;13.13;6.05;;;;;;;;;;4990320;28;20026;-78
2024/01/30 11:39:57;;;;;;;12.88;6.35;;;;;;;;;;5023169;28;20054;-78
2024/01/30 11:42:26;;;;;;;11.32;6.47;;;;;;;;;;4990080;28;20113;-77
2024/01/30 11:44:54;;;;;;;9.65;6.07;;;;;;;;;;4991609;28;20030;-77
2024/01/30 11:47:20;;;;;;;10.85;5.70;;;;;;;;;;4989473;28;20038;-77
2024/01/30 11:49:46;;;;;;;11.52;5.55;;;;;;;;;;4991332;28;20022;-76
2024/01/30 11:52:12;;;;;;;11.35;5.63;;;;;;;;;;4991594;28;20030;-76
2024/01/30 11:54:42;;;;;;;12.50;4.70;;;;;;;;;;4989732;28;20056;-77
2024/01/30 11:57:08;;;;;;;12.68;4.50;;;;;;;;;;4990025;28;20038;-77
2024/01/30 11:59:34;;;;;;;10.40;4.00;;;;;;;;;;4991403;28;20117;-76
2024/01/30 12:02:00;;;;;;;8.15;3.40;;;;;;;;;;4989493;28;20045;-76
2024/01/30 12:04:29;;;;;;;10.70;3.72;;;;;;;;;;4990843;28;20038;-77
2024/01/30 12:06:55;;;;;;;10.98;3.30;;;;;;;;;;4971761;28;20058;-77
2024/01/30 12:09:21;;;;;;;13.05;3.33;;;;;;;;;;4989305;28;20026;-79
2024/01/30 12:11:48;;;;;;;9.18;3.10;;;;;;;;;;4990945;28;20049;-77
2024/01/30 12:14:15;;;;;;;9.93;3.33;;;;;;;;;;4989350;28;20112;-78
2024/01/30 12:16:41;;;;;;;11.10;2.40;;;;;;;;;;4990825;28;20096;-78
2024/01/30 12:19:08;;;;;;;7.18;2.42;;;;;;;;;;4973650;28;20062;-79
2024/01/30 12:21:34;;;;;;;11.77;2.40;;;;;;;;;;4990514;28;20081;-76
2024/01/30 12:24:01;;;;;;;8.77;2.60;;;;;;;;;;5021756;28;20882;-76
2024/01/30 12:26:27;;;;;;;10.07;2.30;;;;;;;;;;4985868;28;20384;-76
2024/01/30 12:29:01;;;;;;;16.65;3.08;;;;;;;;;;4987404;28;20026;-79
2024/01/30 12:31:32;;;;;;;9.93;2.88;;;;;;;;;;4989773;28;20113;-76
2024/01/30 12:34:00;;;;;;;9.18;2.80;;;;;;;;;;4989565;28;20031;-77
2024/01/30 12:36:26;;;;;;;8.32;2.75;;;;;;;;;;4991195;28;20034;-76
2024/01/30 12:38:57;;;;;;;11.35;2.78;;;;;;;;;;5004231;28;20037;-79
2024/01/30 12:41:28;;;;;;;10.45;2.40;;;;;;;;;;4990194;28;20088;-78
2024/01/30 12:43:55;;;;;;;9.02;2.65;;;;;;;;;;4973514;28;20133;-78
2024/01/30 12:46:21;;;;;;;9.93;2.10;;;;;;;;;;4991537;28;20034;-78
2024/01/30 12:48:47;;;;;;;11.85;2.72;;;;;;;;;;4988673;28;20061;-78
2024/01/30 12:51:13;;;;;;;4.60;1.75;;;;;;;;;;4989990;28;20129;-78
2024/01/30 12:53:39;;;;;;;9.23;2.13;;;;;;;;;;4990282;28;20113;-77
2024/01/30 12:56:05;;;;;;;12.27;2.50;;;;;;;;;;4990805;28;20065;-79
2024/01/30 12:58:32;;;;;;;10.43;1.90;;;;;;;;;;4990741;28;20038;-78
2024/01/30 13:00:58;;;;;;;7.57;2.33;;;;;;;;;;4990976;28;20117;-78
2024/01/30 13:03:24;;;;;;;5.50;1.50;;;;;;;;;;4988985;28;20034;-81
2024/01/30 13:05:51;;;;;;;11.05;1.85;;;;;;;;;;4990239;28;20631;-77
2024/01/30 13:08:17;;;;;;;9.00;2.05;;;;;;;;;;4990693;28;20410;-78
2024/01/30 13:10:43;;;;;;;6.93;2.65;;;;;;;;;;4990295;28;20194;-77
2024/01/30 13:13:09;;;;;;;11.75;2.58;;;;;;;;;;4989745;28;20049;-78
2024/01/30 13:15:35;;;;;;;13.52;2.22;;;;;;;;;;4990479;28;20042;-78
2024/01/30 13:18:02;;;;;;;9.73;2.78;;;;;;;;;;5016527;28;20035;-78
2024/01/30 13:20:28;;;;;;;7.82;2.45;;;;;;;;;;4997443;28;20030;-77
2024/01/30 13:22:54;;;;;;;10.45;2.63;;;;;;;;;;4991827;28;20034;-77
2024/01/30 13:25:20;;;;;;;14.32;3.17;;;;;;;;;;4995672;28;20035;-78
2024/01/30 13:27:47;;;;;;;8.68;3.33;;;;;;;;;;4991205;28;20073;-79
2024/01/30 13:30:14;;;;;;;13.18;3.80;;;;;;;;;;4990459;28;20030;-78
2024/01/30 13:32:44;;;;;;;10.40;4.88;;;;;;;;;;4988119;28;20034;-78
2024/01/30 13:35:10;;;;;;;21.45;10.23;;;;;;;;;;4988787;28;20044;-80
2024/01/30 13:37:36;;;;;;;28.10;16.05;;;;;;;;;;4989915;28;20065;-79
2024/01/30 13:40:09;;;;;;;18.40;8.85;;;;;;;;;;4987148;28;20045;-78
2024/01/30 13:42:35;;;;;;;17.38;4.47;;;;;;;;;;4989528;28;20034;-79
2024/01/30 13:45:02;;;;;;;6.88;4.00;;;;;;;;;;4971993;28;20484;-79
2024/01/30 13:47:28;;;;;;;13.23;4.50;;;;;;;;;;4988910;28;20042;-80
2024/01/30 13:49:54;;;;;;;12.50;5.00;;;;;;;;;;4989609;28;20436;-77
2024/01/30 13:52:20;;;;;;;13.85;4.90;;;;;;;;;;4989187;28;20049;-78
2024/01/30 13:54:46;;;;;;;13.18;5.68;;;;;;;;;;5019552;28;20026;-78
2024/01/30 13:57:13;;;;;;;13.43;6.35;;;;;;;;;;5013339;28;20854;-77
2024/01/30 13:59:40;;;;;;;16.50;6.30;;;;;;;;;;4991130;28;20037;-77
2024/01/30 14:02:08;;;;;;;17.92;8.40;;;;;;;;;;4986758;28;20034;-79
2024/01/30 14:04:35;;;;;;;16.75;7.35;;;;;;;;;;4974856;28;20080;-77
2024/01/30 14:07:02;;;;;;;32.65;14.60;;;;;;;;;;4984452;28;20566;-79
2024/01/30 14:09:28;;;;;;;17.70;6.97;;;;;;;;;;4988077;28;20318;-78
2024/01/30 14:11:54;;;;;;;24.33;8.82;;;;;;;;;;4988437;28;20030;-76
2024/01/30 14:14:21;;;;;;;15.45;8.80;;;;;;;;;;4986430;28;20495;-77
2024/01/30 14:16:47;;;;;;;24.20;11.18;;;;;;;;;;4989130;28;20050;-77